Time;durP1;ratioP1;P1;durP2;ratioP2;P2;SDS_P1;SDS_P2;PMS_P1;PMS_P2;Temp;Humidity;BMP_temperature;BMP_pressure;BME280_temperature;BME280_humidity;BME280_pressure;Samples;Min_cycle;Max_cycle;Signal;HPM_P1;HPM_P2
2023/12/06 00:01:38;;;;;;;11.77;6.32;;;;;;;;;;10425342;28;20048;-66
2023/12/06 00:06:38;;;;;;;8.85;5.43;;;;;;;;;;10452925;28;20032;-65
2023/12/06 00:11:39;;;;;;;7.68;5.30;;;;;;;;;;10453569;28;20040;-64
2023/12/06 00:16:40;;;;;;;9.07;5.97;;;;;;;;;;10453568;28;20138;-64
2023/12/06 00:21:41;;;;;;;7.32;5.40;;;;;;;;;;10453568;28;20036;-64
2023/12/06 00:26:43;;;;;;;8.48;5.38;;;;;;;;;;10453048;28;20025;-64
2023/12/06 00:31:43;;;;;;;8.77;5.28;;;;;;;;;;10452335;28;20017;-64
2023/12/06 00:36:44;;;;;;;7.85;5.43;;;;;;;;;;10452956;28;20078;-64
2023/12/06 00:41:44;;;;;;;7.15;5.32;;;;;;;;;;10451251;28;20033;-64
2023/12/06 00:46:45;;;;;;;5.72;4.65;;;;;;;;;;10452773;28;20025;-64
2023/12/06 00:51:46;;;;;;;9.07;5.40;;;;;;;;;;10451703;28;20085;-63
2023/12/06 00:56:47;;;;;;;9.32;5.40;;;;;;;;;;10451823;28;20464;-63
2023/12/06 01:39:21;;;;;;;7.32;5.28;;;;;;;;;;10435074;28;20037;-64
2023/12/06 01:44:22;;;;;;;6.20;4.90;;;;;;;;;;10447951;28;20053;-64
2023/12/06 01:49:23;;;;;;;9.60;5.60;;;;;;;;;;10448912;28;20040;-64
2023/12/06 01:54:26;;;;;;;7.15;4.85;;;;;;;;;;10448900;28;20400;-64
2023/12/06 01:59:27;;;;;;;8.18;4.93;;;;;;;;;;10423022;28;20028;-64
2023/12/06 02:04:28;;;;;;;6.28;4.43;;;;;;;;;;10442588;28;20354;-65
2023/12/06 02:09:28;;;;;;;5.70;4.75;;;;;;;;;;10444095;28;20037;-65
2023/12/06 02:14:33;;;;;;;5.88;4.38;;;;;;;;;;10430113;28;20025;-65
2023/12/06 02:19:34;;;;;;;9.13;4.80;;;;;;;;;;10428899;28;20040;-65
2023/12/06 02:24:36;;;;;;;7.03;5.22;;;;;;;;;;10433149;28;20044;-65
2023/12/06 02:29:37;;;;;;;7.22;4.88;;;;;;;;;;10432131;28;20029;-65
2023/12/06 02:34:40;;;;;;;7.10;4.70;;;;;;;;;;10446515;28;20496;-65
2023/12/06 02:39:44;;;;;;;8.70;4.50;;;;;;;;;;10447065;28;20024;-64
2023/12/06 02:44:44;;;;;;;6.10;4.97;;;;;;;;;;10444725;28;20063;-64
2023/12/06 02:49:45;;;;;;;5.78;4.55;;;;;;;;;;10434541;28;20083;-65
2023/12/06 02:54:45;;;;;;;6.20;4.78;;;;;;;;;;10432986;28;20059;-66
2023/12/06 02:59:46;;;;;;;5.43;4.57;;;;;;;;;;10446679;28;20021;-64
2023/12/06 03:04:47;;;;;;;5.85;4.93;;;;;;;;;;10445812;28;20464;-65
2023/12/06 03:09:47;;;;;;;6.97;4.63;;;;;;;;;;10446747;28;20392;-63
2023/12/06 03:14:48;;;;;;;7.07;4.88;;;;;;;;;;10433890;28;20488;-64
2023/12/06 03:19:49;;;;;;;6.63;4.93;;;;;;;;;;10432319;28;20040;-65
2023/12/06 03:24:49;;;;;;;5.97;4.47;;;;;;;;;;10434465;28;20388;-67
2023/12/06 03:29:50;;;;;;;6.07;4.30;;;;;;;;;;10442474;28;20071;-66
2023/12/06 03:34:50;;;;;;;5.15;4.53;;;;;;;;;;10445614;28;20028;-67
2023/12/06 03:39:51;;;;;;;6.95;4.55;;;;;;;;;;10445214;28;20539;-66
2023/12/06 03:44:51;;;;;;;5.32;4.07;;;;;;;;;;10446456;28;20424;-65
2023/12/06 03:49:53;;;;;;;6.65;4.50;;;;;;;;;;10445662;28;20082;-65
2023/12/06 03:54:53;;;;;;;4.65;3.92;;;;;;;;;;10444363;28;20040;-66
2023/12/06 03:59:54;;;;;;;5.68;4.30;;;;;;;;;;10444237;28;20125;-66
2023/12/06 04:04:54;;;;;;;5.78;4.50;;;;;;;;;;10432626;28;20025;-66
2023/12/06 04:09:55;;;;;;;6.53;4.35;;;;;;;;;;10426829;28;20025;-66
2023/12/06 04:14:55;;;;;;;4.82;4.25;;;;;;;;;;10445272;28;20033;-65
2023/12/06 04:19:56;;;;;;;4.95;4.10;;;;;;;;;;10432597;28;20036;-64
2023/12/06 04:24:57;;;;;;;6.30;4.63;;;;;;;;;;10445806;28;20049;-63
2023/12/06 04:29:57;;;;;;;6.95;5.15;;;;;;;;;;10445862;28;20099;-62
2023/12/06 04:34:58;;;;;;;6.00;4.28;;;;;;;;;;10439763;28;20032;-62
2023/12/06 04:39:59;;;;;;;4.28;3.88;;;;;;;;;;10451487;28;20033;-62
2023/12/06 04:44:59;;;;;;;5.68;4.63;;;;;;;;;;10452985;28;20236;-62
2023/12/06 04:50:00;;;;;;;6.68;4.63;;;;;;;;;;10444914;28;20382;-62
2023/12/06 04:55:04;;;;;;;6.57;4.60;;;;;;;;;;10446953;28;20033;-62
2023/12/06 05:00:07;;;;;;;6.75;4.18;;;;;;;;;;10441583;28;20361;-62
2023/12/06 05:05:08;;;;;;;5.30;4.38;;;;;;;;;;10442338;28;20499;-66
2023/12/06 05:10:09;;;;;;;4.18;3.78;;;;;;;;;;10450087;28;20036;-66
2023/12/06 05:15:10;;;;;;;5.75;4.38;;;;;;;;;;10438561;28;20112;-65
2023/12/06 05:20:11;;;;;;;5.57;4.70;;;;;;;;;;10450239;28;20037;-66
2023/12/06 05:25:12;;;;;;;5.07;4.10;;;;;;;;;;10450198;28;20461;-66
2023/12/06 05:30:13;;;;;;;5.22;3.85;;;;;;;;;;10433830;28;20024;-67
2023/12/06 05:35:14;;;;;;;6.68;4.25;;;;;;;;;;10435965;28;20449;-71
2023/12/06 05:40:14;;;;;;;5.32;4.47;;;;;;;;;;10445933;28;20060;-70
2023/12/06 05:45:15;;;;;;;5.53;4.63;;;;;;;;;;10447469;28;20468;-67
2023/12/06 05:50:15;;;;;;;4.85;3.83;;;;;;;;;;10450190;28;20040;-67
2023/12/06 05:55:16;;;;;;;4.95;4.32;;;;;;;;;;10449998;28;20488;-66
2023/12/06 06:00:17;;;;;;;4.75;3.95;;;;;;;;;;10447777;28;20415;-64
2023/12/06 06:05:18;;;;;;;5.55;4.18;;;;;;;;;;10443718;28;20162;-66
2023/12/06 06:10:18;;;;;;;6.55;4.70;;;;;;;;;;10448320;28;20037;-66
2023/12/06 06:15:20;;;;;;;5.80;4.68;;;;;;;;;;10448890;28;20029;-66
2023/12/06 06:20:20;;;;;;;4.65;3.97;;;;;;;;;;10448378;28;20041;-66
2023/12/06 06:25:21;;;;;;;5.20;3.90;;;;;;;;;;10447452;28;20028;-66
2023/12/06 06:30:22;;;;;;;4.63;4.13;;;;;;;;;;10448707;28;20024;-66
2023/12/06 06:35:23;;;;;;;4.85;4.15;;;;;;;;;;10447551;28;20025;-66
2023/12/06 06:40:23;;;;;;;5.13;4.43;;;;;;;;;;10447067;28;20377;-65
2023/12/06 06:45:24;;;;;;;4.40;3.92;;;;;;;;;;10446144;28;20036;-64
2023/12/06 06:50:25;;;;;;;5.13;4.13;;;;;;;;;;10446708;28;20156;-64
2023/12/06 06:55:26;;;;;;;6.80;4.85;;;;;;;;;;10438923;28;20427;-65
2023/12/06 07:00:26;;;;;;;6.15;5.32;;;;;;;;;;10446215;28;20090;-66
2023/12/06 07:05:27;;;;;;;10.68;5.82;;;;;;;;;;10442395;28;20095;-64
2023/12/06 07:10:27;;;;;;;9.77;5.90;;;;;;;;;;10433506;28;20040;-63
2023/12/06 07:15:28;;;;;;;9.55;6.10;;;;;;;;;;10433763;28;20551;-63
2023/12/06 07:20:29;;;;;;;13.15;6.32;;;;;;;;;;10445058;28;20041;-63
2023/12/06 07:25:30;;;;;;;22.88;6.53;;;;;;;;;;10446811;28;20163;-64
2023/12/06 07:30:31;;;;;;;13.00;6.80;;;;;;;;;;10447171;28;20033;-64
2023/12/06 07:35:31;;;;;;;12.20;6.90;;;;;;;;;;10447145;28;20025;-64
2023/12/06 07:40:32;;;;;;;16.35;6.63;;;;;;;;;;10447017;28;20090;-65
2023/12/06 07:45:32;;;;;;;10.02;6.50;;;;;;;;;;10446765;28;20410;-63
2023/12/06 07:50:33;;;;;;;15.52;6.82;;;;;;;;;;10446219;28;20038;-64
2023/12/06 07:55:34;;;;;;;7.78;5.88;;;;;;;;;;10447326;28;20083;-64
2023/12/06 08:00:36;;;;;;;9.35;5.72;;;;;;;;;;10442159;28;20029;-64
2023/12/06 08:05:38;;;;;;;13.20;6.35;;;;;;;;;;10432505;28;20384;-64
2023/12/06 08:10:42;;;;;;;12.55;6.05;;;;;;;;;;10441888;28;20037;-64
2023/12/06 08:15:43;;;;;;;10.57;6.13;;;;;;;;;;10446408;28;20028;-64
2023/12/06 08:20:43;;;;;;;7.30;6.13;;;;;;;;;;10447042;28;20484;-64
2023/12/06 08:25:44;;;;;;;11.00;6.45;;;;;;;;;;10429524;28;20029;-65
2023/12/06 08:30:45;;;;;;;11.57;7.10;;;;;;;;;;10439631;28;20033;-63
2023/12/06 08:35:45;;;;;;;13.35;6.65;;;;;;;;;;10451534;28;20030;-63
2023/12/06 08:40:46;;;;;;;13.85;6.50;;;;;;;;;;10433598;28;20040;-64
2023/12/06 08:45:47;;;;;;;7.95;6.53;;;;;;;;;;10452604;28;20036;-64
2023/12/06 08:50:47;;;;;;;8.32;6.47;;;;;;;;;;10438903;28;20481;-63
2023/12/06 08:55:48;;;;;;;8.43;6.78;;;;;;;;;;10410253;28;20056;-64
2023/12/06 09:00:48;;;;;;;7.65;6.55;;;;;;;;;;10407248;28;20029;-63
2023/12/06 09:05:49;;;;;;;9.55;6.47;;;;;;;;;;10404526;28;20468;-66
2023/12/06 09:10:49;;;;;;;11.68;7.15;;;;;;;;;;10404001;28;20029;-63
2023/12/06 09:15:50;;;;;;;11.07;7.07;;;;;;;;;;10403155;28;20017;-66
2023/12/06 09:20:52;;;;;;;8.20;6.20;;;;;;;;;;10402110;28;20052;-66
2023/12/06 09:25:52;;;;;;;9.88;6.80;;;;;;;;;;10403732;28;20025;-66
2023/12/06 09:30:53;;;;;;;10.40;6.57;;;;;;;;;;10402414;28;20041;-65
2023/12/06 09:35:54;;;;;;;10.27;6.78;;;;;;;;;;10402727;28;20033;-66
2023/12/06 09:40:54;;;;;;;13.90;6.95;;;;;;;;;;10402541;28;20051;-63
2023/12/06 09:45:55;;;;;;;8.90;6.60;;;;;;;;;;10402539;28;20086;-67
2023/12/06 09:50:56;;;;;;;11.00;7.13;;;;;;;;;;10400460;28;20049;-63
2023/12/06 09:55:57;;;;;;;10.02;7.15;;;;;;;;;;10404078;28;20124;-63
2023/12/06 10:00:58;;;;;;;10.20;7.10;;;;;;;;;;10405829;28;20130;-66
2023/12/06 10:06:03;;;;;;;8.90;6.70;;;;;;;;;;10405203;28;20111;-66
2023/12/06 10:11:06;;;;;;;8.05;6.18;;;;;;;;;;10403629;28;20083;-66
2023/12/06 10:16:21;;;;;;;6.55;5.93;;;;;;;;;;10403642;28;20027;-65
2023/12/06 10:21:22;;;;;;;8.50;6.40;;;;;;;;;;10404905;28;20049;-65
2023/12/06 10:26:22;;;;;;;10.02;6.15;;;;;;;;;;10404322;28;20033;-66
2023/12/06 10:31:23;;;;;;;8.10;6.15;;;;;;;;;;10402836;28;20126;-67
2023/12/06 10:36:27;;;;;;;10.07;6.75;;;;;;;;;;10402917;28;20033;-66
2023/12/06 10:41:31;;;;;;;14.38;6.35;;;;;;;;;;10397947;28;20050;-67
2023/12/06 10:46:32;;;;;;;10.10;6.15;;;;;;;;;;10402209;28;20694;-65
2023/12/06 10:51:35;;;;;;;7.82;6.25;;;;;;;;;;10397240;28;20045;-65
2023/12/06 10:56:36;;;;;;;8.25;5.95;;;;;;;;;;10399529;28;20035;-66
2023/12/06 11:01:37;;;;;;;7.75;6.22;;;;;;;;;;10400251;28;20170;-65
2023/12/06 11:07:23;;;;;;;8.30;6.40;;;;;;;;;;10399964;28;20040;-64
2023/12/06 11:12:57;;;;;;;9.90;6.22;;;;;;;;;;10400632;28;20036;-64
2023/12/06 11:18:35;;;;;;;8.75;6.45;;;;;;;;;;10398980;28;21652;-64
2023/12/06 11:23:36;;;;;;;9.50;6.17;;;;;;;;;;10396774;28;20049;-64
2023/12/06 11:28:41;;;;;;;7.65;6.18;;;;;;;;;;10400948;28;20473;-64
2023/12/06 11:33:55;;;;;;;7.72;6.13;;;;;;;;;;10400781;28;20035;-64
2023/12/06 11:38:56;;;;;;;7.25;5.93;;;;;;;;;;10400395;28;20113;-64
2023/12/06 11:43:56;;;;;;;8.10;5.60;;;;;;;;;;10404728;28;20044;-64
2023/12/06 11:48:58;;;;;;;7.93;5.88;;;;;;;;;;10408766;28;20033;-64
2023/12/06 11:54:00;;;;;;;7.95;6.00;;;;;;;;;;10410031;28;20781;-64
2023/12/06 11:59:03;;;;;;;7.95;5.82;;;;;;;;;;10407787;28;20104;-64
2023/12/06 12:04:04;;;;;;;7.65;4.95;;;;;;;;;;10405307;28;20056;-63
2023/12/06 12:09:05;;;;;;;7.68;6.20;;;;;;;;;;10402898;28;20057;-64
2023/12/06 12:14:06;;;;;;;8.27;6.20;;;;;;;;;;10406949;28;20020;-64
2023/12/06 12:19:08;;;;;;;7.07;5.43;;;;;;;;;;10408087;28;20435;-64
2023/12/06 12:24:09;;;;;;;6.72;5.93;;;;;;;;;;10407632;28;20044;-64
2023/12/06 12:29:17;;;;;;;12.85;5.90;;;;;;;;;;10406754;28;20029;-63
2023/12/06 12:34:18;;;;;;;5.47;4.95;;;;;;;;;;10411947;28;20128;-64
2023/12/06 12:39:18;;;;;;;6.22;5.40;;;;;;;;;;10406200;28;20029;-64
2023/12/06 12:44:19;;;;;;;8.05;5.68;;;;;;;;;;10431320;28;20368;-64
2023/12/06 12:49:20;;;;;;;6.75;5.68;;;;;;;;;;10413988;28;20422;-64
2023/12/06 12:54:21;;;;;;;6.78;5.35;;;;;;;;;;10418862;28;20103;-64
2023/12/06 12:59:21;;;;;;;7.88;5.35;;;;;;;;;;10444903;28;20036;-63
2023/12/06 13:04:22;;;;;;;7.43;5.85;;;;;;;;;;10428061;28;20041;-63
2023/12/06 13:09:23;;;;;;;8.82;5.68;;;;;;;;;;10404207;28;20017;-64
2023/12/06 13:14:23;;;;;;;6.88;5.38;;;;;;;;;;10432738;28;20521;-65
2023/12/06 13:19:24;;;;;;;5.60;5.05;;;;;;;;;;10431794;28;20328;-64
2023/12/06 13:24:26;;;;;;;7.18;5.32;;;;;;;;;;10421534;28;20036;-63
2023/12/06 13:29:26;;;;;;;5.88;5.15;;;;;;;;;;10411315;28;20024;-64
2023/12/06 13:34:27;;;;;;;6.35;5.38;;;;;;;;;;10436193;28;20039;-63
2023/12/06 13:39:28;;;;;;;6.60;5.22;;;;;;;;;;10436687;28;20069;-64
2023/12/06 13:44:28;;;;;;;7.70;5.03;;;;;;;;;;10409529;28;20032;-64
2023/12/06 13:49:29;;;;;;;6.18;4.93;;;;;;;;;;10433720;28;20029;-63
2023/12/06 13:54:30;;;;;;;5.82;4.78;;;;;;;;;;10410811;28;20056;-65
2023/12/06 13:59:31;;;;;;;7.07;5.00;;;;;;;;;;10413357;28;20411;-65
2023/12/06 14:04:32;;;;;;;10.88;4.93;;;;;;;;;;10416116;28;20579;-64
2023/12/06 14:09:32;;;;;;;6.20;4.53;;;;;;;;;;10402094;28;20317;-64
2023/12/06 14:14:33;;;;;;;6.07;5.22;;;;;;;;;;10403105;28;20026;-65
2023/12/06 14:19:34;;;;;;;6.18;4.43;;;;;;;;;;10402035;28;20083;-64
2023/12/06 14:24:34;;;;;;;5.75;4.80;;;;;;;;;;10400239;28;20171;-66
2023/12/06 14:29:35;;;;;;;5.20;4.40;;;;;;;;;;10403661;28;20095;-65
2023/12/06 14:34:36;;;;;;;5.72;4.80;;;;;;;;;;10403102;28;20033;-65
2023/12/06 14:39:36;;;;;;;5.55;4.13;;;;;;;;;;10402445;28;20036;-66
2023/12/06 14:44:37;;;;;;;7.00;4.70;;;;;;;;;;10402018;28;20060;-66
2023/12/06 14:49:37;;;;;;;6.78;4.50;;;;;;;;;;10400216;28;20071;-64
2023/12/06 14:54:38;;;;;;;6.20;4.90;;;;;;;;;;10401430;28;20071;-64
2023/12/06 14:59:38;;;;;;;6.20;4.18;;;;;;;;;;10402182;28;20040;-64
2023/12/06 15:04:40;;;;;;;5.82;4.60;;;;;;;;;;10395471;28;20033;-65
2023/12/06 15:09:40;;;;;;;5.72;3.90;;;;;;;;;;10408103;28;20440;-64
2023/12/06 15:14:41;;;;;;;8.25;4.03;;;;;;;;;;10423311;28;20040;-64
2023/12/06 15:19:44;;;;;;;7.20;4.88;;;;;;;;;;10426538;28;20033;-64
2023/12/06 15:24:47;;;;;;;12.20;4.50;;;;;;;;;;10420412;28;20033;-68
2023/12/06 15:29:47;;;;;;;6.47;4.80;;;;;;;;;;10425209;28;20040;-66
2023/12/06 15:34:51;;;;;;;7.22;4.13;;;;;;;;;;10435344;28;20029;-64
2023/12/06 15:39:52;;;;;;;7.35;3.90;;;;;;;;;;10413833;28;20465;-65
2023/12/06 15:44:53;;;;;;;8.20;4.47;;;;;;;;;;10410093;28;20025;-66
2023/12/06 15:49:53;;;;;;;7.70;4.50;;;;;;;;;;10409296;28;20033;-66
2023/12/06 15:54:55;;;;;;;5.18;4.32;;;;;;;;;;10419976;28;20042;-65
2023/12/06 15:59:56;;;;;;;4.50;3.92;;;;;;;;;;10427589;28;20025;-66
2023/12/06 16:04:56;;;;;;;6.75;4.68;;;;;;;;;;10440394;28;20033;-66
2023/12/06 16:09:57;;;;;;;6.10;4.28;;;;;;;;;;10410848;28;20036;-64
2023/12/06 16:14:58;;;;;;;4.65;3.90;;;;;;;;;;10422443;28;20065;-67
2023/12/06 16:19:59;;;;;;;8.05;4.40;;;;;;;;;;10424843;28;20427;-67
2023/12/06 16:24:59;;;;;;;6.40;4.22;;;;;;;;;;10430784;28;20075;-66
2023/12/06 16:30:00;;;;;;;6.10;4.68;;;;;;;;;;10407069;28;20029;-66
2023/12/06 16:35:01;;;;;;;9.13;4.63;;;;;;;;;;10446348;28;20106;-67
2023/12/06 16:40:03;;;;;;;7.22;4.45;;;;;;;;;;10430979;28;20033;-66
2023/12/06 16:45:06;;;;;;;7.00;4.47;;;;;;;;;;10440498;28;20025;-66
2023/12/06 16:50:09;;;;;;;5.93;4.32;;;;;;;;;;10450311;28;20021;-66
2023/12/06 16:55:10;;;;;;;7.40;4.57;;;;;;;;;;10436072;28;20123;-66
2023/12/06 17:00:11;;;;;;;5.95;4.18;;;;;;;;;;10436774;28;20033;-66
2023/12/06 17:05:12;;;;;;;4.32;3.70;;;;;;;;;;10425308;28;20044;-66
2023/12/06 17:10:12;;;;;;;5.88;4.40;;;;;;;;;;10413763;28;20060;-66
2023/12/06 17:15:13;;;;;;;5.95;4.10;;;;;;;;;;10420181;28;20029;-66
2023/12/06 17:20:14;;;;;;;5.32;4.20;;;;;;;;;;10443851;28;20138;-66
2023/12/06 17:25:15;;;;;;;6.55;4.85;;;;;;;;;;10427995;28;20026;-66
2023/12/06 17:30:16;;;;;;;5.05;4.55;;;;;;;;;;10440417;28;20025;-65
2023/12/06 17:35:16;;;;;;;6.18;4.45;;;;;;;;;;10437335;28;20029;-66
2023/12/06 17:40:17;;;;;;;5.15;4.10;;;;;;;;;;10443408;28;20036;-65
2023/12/06 17:45:18;;;;;;;5.72;4.53;;;;;;;;;;10440682;28;20384;-65
2023/12/06 17:50:19;;;;;;;4.70;4.20;;;;;;;;;;10423638;28;20446;-65
2023/12/06 17:55:20;;;;;;;8.50;4.40;;;;;;;;;;10429516;28;20053;-65
2023/12/06 18:00:21;;;;;;;5.68;4.18;;;;;;;;;;10420799;28;20036;-65
2023/12/06 18:05:22;;;;;;;8.65;4.35;;;;;;;;;;10425941;28;20036;-65
2023/12/06 18:10:26;;;;;;;8.85;4.53;;;;;;;;;;10413594;28;20029;-65
2023/12/06 18:15:28;;;;;;;5.40;4.30;;;;;;;;;;10415141;28;20622;-65
2023/12/06 18:20:28;;;;;;;6.53;4.18;;;;;;;;;;10401509;28;20094;-65
2023/12/06 18:25:30;;;;;;;6.43;4.40;;;;;;;;;;10423956;28;20029;-65
2023/12/06 18:30:31;;;;;;;17.95;5.32;;;;;;;;;;10431296;28;20033;-66
2023/12/06 18:35:32;;;;;;;28.95;7.38;;;;;;;;;;10410404;28;20029;-65
2023/12/06 18:40:33;;;;;;;16.00;6.18;;;;;;;;;;10406513;28;20086;-65
2023/12/06 18:45:33;;;;;;;14.98;5.88;;;;;;;;;;10418631;28;20032;-65
2023/12/06 18:50:35;;;;;;;17.17;6.50;;;;;;;;;;10420647;28;20068;-65
2023/12/06 18:55:36;;;;;;;14.93;5.50;;;;;;;;;;10426318;28;20492;-65
2023/12/06 19:00:37;;;;;;;11.45;5.78;;;;;;;;;;10408207;28;20123;-65
2023/12/06 19:05:38;;;;;;;10.40;5.20;;;;;;;;;;10394825;28;20033;-65
2023/12/06 19:10:39;;;;;;;11.50;5.78;;;;;;;;;;10395642;28;20091;-65
2023/12/06 19:15:39;;;;;;;13.38;5.80;;;;;;;;;;10393885;28;20277;-65
2023/12/06 19:20:40;;;;;;;11.35;6.00;;;;;;;;;;10396047;28;20033;-66
2023/12/06 19:25:41;;;;;;;10.63;6.10;;;;;;;;;;10396795;28;20037;-65
2023/12/06 19:30:42;;;;;;;12.23;6.32;;;;;;;;;;10396648;28;20116;-66
2023/12/06 19:35:43;;;;;;;10.57;6.20;;;;;;;;;;10395057;28;20029;-66
2023/12/06 19:40:44;;;;;;;8.98;6.03;;;;;;;;;;10410960;28;20051;-66
2023/12/06 19:45:46;;;;;;;9.75;6.40;;;;;;;;;;10429162;28;20028;-66
2023/12/06 19:50:48;;;;;;;12.18;6.32;;;;;;;;;;10396936;28;20451;-66
2023/12/06 19:55:48;;;;;;;11.60;6.30;;;;;;;;;;10393713;28;20085;-66
2023/12/06 20:00:49;;;;;;;13.10;7.43;;;;;;;;;;10395122;28;20648;-66
2023/12/06 20:05:49;;;;;;;10.50;6.30;;;;;;;;;;10421413;28;20033;-66
2023/12/06 20:10:50;;;;;;;12.73;6.82;;;;;;;;;;10435316;28;20098;-66
2023/12/06 20:15:51;;;;;;;14.07;6.80;;;;;;;;;;10445634;28;20028;-66
2023/12/06 20:20:51;;;;;;;9.70;6.57;;;;;;;;;;10405020;28;20303;-65
2023/12/06 20:25:52;;;;;;;9.68;6.82;;;;;;;;;;10404952;28;20424;-65
2023/12/06 20:31:13;;;;;;;14.80;6.68;;;;;;;;;;10402005;28;20838;-65
2023/12/06 20:36:17;;;;;;;13.00;6.70;;;;;;;;;;10313232;28;20074;-66
2023/12/06 20:41:17;;;;;;;10.65;6.53;;;;;;;;;;10323774;28;20053;-66
2023/12/06 20:46:18;;;;;;;10.55;6.82;;;;;;;;;;10331757;28;20597;-66
2023/12/06 20:51:19;;;;;;;11.00;7.50;;;;;;;;;;10342823;28;20070;-66
2023/12/06 20:56:20;;;;;;;11.43;7.50;;;;;;;;;;10360558;28;20188;-66
2023/12/06 21:01:20;;;;;;;11.35;7.45;;;;;;;;;;10348728;28;20132;-66
2023/12/06 21:06:21;;;;;;;9.27;6.80;;;;;;;;;;10370561;28;20429;-65
2023/12/06 21:11:21;;;;;;;12.63;7.13;;;;;;;;;;10397241;28;20040;-65
2023/12/06 21:16:22;;;;;;;11.50;7.40;;;;;;;;;;10432059;28;20025;-65
2023/12/06 21:21:23;;;;;;;19.75;7.95;;;;;;;;;;10437905;28;20040;-65
2023/12/06 21:26:23;;;;;;;25.73;7.90;;;;;;;;;;10444461;28;20025;-65
2023/12/06 21:31:24;;;;;;;17.23;8.02;;;;;;;;;;10440820;28;20053;-65
2023/12/06 21:36:24;;;;;;;17.70;8.40;;;;;;;;;;10443687;28;20075;-65
2023/12/06 21:41:25;;;;;;;13.63;7.70;;;;;;;;;;10446876;28;20040;-65
2023/12/06 21:46:26;;;;;;;15.18;7.20;;;;;;;;;;10446534;28;20025;-65
2023/12/06 21:51:26;;;;;;;13.45;8.20;;;;;;;;;;10440166;28;20056;-65
2023/12/06 21:56:28;;;;;;;14.15;7.70;;;;;;;;;;10423012;28;20045;-65
2023/12/06 22:01:28;;;;;;;16.45;7.35;;;;;;;;;;10416996;28;20029;-65
2023/12/06 22:06:29;;;;;;;13.38;6.63;;;;;;;;;;10442768;28;20029;-65
2023/12/06 22:11:30;;;;;;;11.27;7.20;;;;;;;;;;10432590;28;20033;-65
2023/12/06 22:16:30;;;;;;;12.13;6.53;;;;;;;;;;10429974;28;20029;-65
2023/12/06 22:21:31;;;;;;;11.15;6.93;;;;;;;;;;10424575;28;20029;-65
2023/12/06 22:26:31;;;;;;;15.07;7.63;;;;;;;;;;10395159;28;20508;-65
2023/12/06 22:31:33;;;;;;;12.50;6.97;;;;;;;;;;10398460;28;20049;-65
2023/12/06 22:36:34;;;;;;;11.82;7.72;;;;;;;;;;10395736;28;20505;-65
2023/12/06 22:41:34;;;;;;;12.55;7.50;;;;;;;;;;10396535;28;20199;-65
2023/12/06 22:46:42;;;;;;;10.55;7.15;;;;;;;;;;10393766;28;20044;-66
2023/12/06 22:51:43;;;;;;;10.13;7.53;;;;;;;;;;10393755;28;20049;-64
2023/12/06 22:56:43;;;;;;;10.60;7.32;;;;;;;;;;10394844;28;20087;-65
2023/12/06 23:01:45;;;;;;;10.57;6.93;;;;;;;;;;10411539;28;20485;-66
2023/12/06 23:06:45;;;;;;;9.98;6.88;;;;;;;;;;10396034;28;20087;-66
2023/12/06 23:11:46;;;;;;;13.43;7.53;;;;;;;;;;10395891;28;20518;-66
2023/12/06 23:16:47;;;;;;;9.95;7.50;;;;;;;;;;10394954;28;20483;-65
2023/12/06 23:21:47;;;;;;;15.07;7.43;;;;;;;;;;10394546;28;20066;-64
2023/12/06 23:26:48;;;;;;;14.27;6.97;;;;;;;;;;10395133;28;20484;-64
2023/12/06 23:31:48;;;;;;;21.92;9.57;;;;;;;;;;10393827;28;20021;-66
2023/12/06 23:36:49;;;;;;;19.35;9.82;;;;;;;;;;10393800;28;20056;-65
2023/12/06 23:41:49;;;;;;;14.75;10.10;;;;;;;;;;10406925;28;20029;-65
2023/12/06 23:46:50;;;;;;;18.38;10.88;;;;;;;;;;10438918;28;20032;-65
2023/12/06 23:51:51;;;;;;;16.10;10.35;;;;;;;;;;10432221;28;20038;-65
2023/12/06 23:56:52;;;;;;;15.82;10.57;;;;;;;;;;10443539;28;20032;-65
